sensor_id;sensor_type;location;lat;lon;timestamp;temperature;humidity
212;DHT22;16228;48.800;9.002;2023-04-09T00:01:34;4.20;96.90
212;DHT22;16228;48.800;9.002;2023-04-09T00:04:01;4.20;96.90
212;DHT22;16228;48.800;9.002;2023-04-09T00:06:29;4.20;96.90
212;DHT22;16228;48.800;9.002;2023-04-09T00:08:56;4.10;96.90
212;DHT22;16228;48.800;9.002;2023-04-09T00:11:24;4.20;96.90
212;DHT22;16228;48.800;9.002;2023-04-09T00:13:51;4.20;96.90
212;DHT22;16228;48.800;9.002;2023-04-09T00:16:18;4.20;96.90
212;DHT22;16228;48.800;9.002;2023-04-09T00:18:45;4.30;96.90
212;DHT22;16228;48.800;9.002;2023-04-09T00:21:12;4.30;96.90
212;DHT22;16228;48.800;9.002;2023-04-09T00:23:42;4.40;96.90
212;DHT22;16228;48.800;9.002;2023-04-09T00:26:09;4.40;96.90
212;DHT22;16228;48.800;9.002;2023-04-09T00:28:36;4.40;96.90
212;DHT22;16228;48.800;9.002;2023-04-09T00:31:03;4.40;96.90
212;DHT22;16228;48.800;9.002;2023-04-09T00:33:30;4.40;96.90
212;DHT22;16228;48.800;9.002;2023-04-09T00:35:57;4.40;96.90
212;DHT22;16228;48.800;9.002;2023-04-09T00:38:24;4.40;96.90
212;DHT22;16228;48.800;9.002;2023-04-09T00:40:53;4.40;96.90
212;DHT22;16228;48.800;9.002;2023-04-09T00:43:20;4.40;96.90
212;DHT22;16228;48.800;9.002;2023-04-09T00:45:46;4.40;96.90
212;DHT22;16228;48.800;9.002;2023-04-09T00:48:14;4.40;96.90
212;DHT22;16228;48.800;9.002;2023-04-09T00:50:42;4.40;96.90
212;DHT22;16228;48.800;9.002;2023-04-09T00:53:10;4.40;96.90
212;DHT22;16228;48.800;9.002;2023-04-09T00:55:38;4.50;96.90
212;DHT22;16228;48.800;9.002;2023-04-09T00:58:07;4.50;96.90
212;DHT22;16228;48.800;9.002;2023-04-09T01:00:34;4.50;96.90
212;DHT22;16228;48.800;9.002;2023-04-09T01:03:03;4.60;96.90
212;DHT22;16228;48.800;9.002;2023-04-09T01:05:38;4.60;96.90
212;DHT22;16228;48.800;9.002;2023-04-09T01:08:13;4.60;96.90
212;DHT22;16228;48.800;9.002;2023-04-09T01:10:50;4.60;96.90
212;DHT22;16228;48.800;9.002;2023-04-09T01:13:27;4.60;96.90
212;DHT22;16228;48.800;9.002;2023-04-09T01:15:59;4.60;96.90
212;DHT22;16228;48.800;9.002;2023-04-09T01:18:30;4.60;96.90
212;DHT22;16228;48.800;9.002;2023-04-09T01:21:01;4.60;96.90
212;DHT22;16228;48.800;9.002;2023-04-09T01:23:36;4.60;96.90
212;DHT22;16228;48.800;9.002;2023-04-09T01:26:16;4.60;96.90
212;DHT22;16228;48.800;9.002;2023-04-09T01:28:49;4.60;96.90
212;DHT22;16228;48.800;9.002;2023-04-09T01:31:20;4.60;96.90
212;DHT22;16228;48.800;9.002;2023-04-09T01:33:50;4.60;96.90
212;DHT22;16228;48.800;9.002;2023-04-09T01:36:18;4.70;96.90
212;DHT22;16228;48.800;9.002;2023-04-09T01:38:47;4.70;96.90
212;DHT22;16228;48.800;9.002;2023-04-09T01:41:18;4.70;96.90
212;DHT22;16228;48.800;9.002;2023-04-09T01:43:47;4.80;96.90
212;DHT22;16228;48.800;9.002;2023-04-09T01:46:15;4.80;96.90
212;DHT22;16228;48.800;9.002;2023-04-09T01:48:43;4.90;96.90
212;DHT22;16228;48.800;9.002;2023-04-09T01:51:11;4.90;96.90
212;DHT22;16228;48.800;9.002;2023-04-09T01:53:39;4.90;96.90
212;DHT22;16228;48.800;9.002;2023-04-09T01:56:07;4.90;96.90
212;DHT22;16228;48.800;9.002;2023-04-09T01:58:34;4.90;96.90
212;DHT22;16228;48.800;9.002;2023-04-09T02:01:05;4.90;96.90
212;DHT22;16228;48.800;9.002;2023-04-09T02:03:36;4.90;96.90
212;DHT22;16228;48.800;9.002;2023-04-09T02:06:08;4.90;96.90
212;DHT22;16228;48.800;9.002;2023-04-09T02:08:39;4.90;96.90
212;DHT22;16228;48.800;9.002;2023-04-09T02:11:09;4.90;96.90
212;DHT22;16228;48.800;9.002;2023-04-09T02:13:39;4.90;96.90
212;DHT22;16228;48.800;9.002;2023-04-09T02:16:09;4.90;96.90
212;DHT22;16228;48.800;9.002;2023-04-09T02:18:36;5.00;96.90
212;DHT22;16228;48.800;9.002;2023-04-09T02:21:04;4.90;96.90
212;DHT22;16228;48.800;9.002;2023-04-09T02:23:31;4.90;96.90
212;DHT22;16228;48.800;9.002;2023-04-09T02:26:00;4.90;96.90
212;DHT22;16228;48.800;9.002;2023-04-09T02:28:27;4.90;96.90
212;DHT22;16228;48.800;9.002;2023-04-09T02:30:54;4.90;96.90
212;DHT22;16228;48.800;9.002;2023-04-09T02:33:22;4.90;96.90
212;DHT22;16228;48.800;9.002;2023-04-09T02:35:50;5.00;96.90
212;DHT22;16228;48.800;9.002;2023-04-09T02:38:17;5.00;96.90
212;DHT22;16228;48.800;9.002;2023-04-09T02:40:43;5.00;96.90
212;DHT22;16228;48.800;9.002;2023-04-09T02:43:10;5.00;96.90
212;DHT22;16228;48.800;9.002;2023-04-09T02:45:37;5.00;96.90
212;DHT22;16228;48.800;9.002;2023-04-09T02:48:05;5.00;96.90
212;DHT22;16228;48.800;9.002;2023-04-09T02:50:33;5.00;96.90
212;DHT22;16228;48.800;9.002;2023-04-09T02:53:00;5.00;96.90
212;DHT22;16228;48.800;9.002;2023-04-09T02:55:27;5.00;96.90
212;DHT22;16228;48.800;9.002;2023-04-09T02:57:54;5.00;96.90
212;DHT22;16228;48.800;9.002;2023-04-09T03:00:21;5.00;96.90
212;DHT22;16228;48.800;9.002;2023-04-09T03:02:48;5.00;96.90
212;DHT22;16228;48.800;9.002;2023-04-09T03:05:15;5.10;96.90
212;DHT22;16228;48.800;9.002;2023-04-09T03:07:43;5.10;96.90
212;DHT22;16228;48.800;9.002;2023-04-09T03:10:12;5.10;96.90
212;DHT22;16228;48.800;9.002;2023-04-09T03:12:39;5.10;96.90
212;DHT22;16228;48.800;9.002;2023-04-09T03:15:06;5.10;96.90
212;DHT22;16228;48.800;9.002;2023-04-09T03:17:33;5.00;96.90
212;DHT22;16228;48.800;9.002;2023-04-09T03:20:00;5.00;96.90
212;DHT22;16228;48.800;9.002;2023-04-09T03:22:27;5.10;96.90
212;DHT22;16228;48.800;9.002;2023-04-09T03:24:56;5.10;96.90
212;DHT22;16228;48.800;9.002;2023-04-09T03:27:23;5.00;96.90
212;DHT22;16228;48.800;9.002;2023-04-09T03:29:54;4.90;96.90
212;DHT22;16228;48.800;9.002;2023-04-09T03:32:21;4.90;96.90
212;DHT22;16228;48.800;9.002;2023-04-09T03:34:48;4.90;96.90
212;DHT22;16228;48.800;9.002;2023-04-09T03:37:15;4.90;96.90
212;DHT22;16228;48.800;9.002;2023-04-09T03:39:42;4.90;96.90
212;DHT22;16228;48.800;9.002;2023-04-09T03:42:10;4.90;96.90
212;DHT22;16228;48.800;9.002;2023-04-09T03:44:37;4.80;96.90
212;DHT22;16228;48.800;9.002;2023-04-09T03:47:04;4.60;96.90
212;DHT22;16228;48.800;9.002;2023-04-09T03:49:33;4.50;96.90
212;DHT22;16228;48.800;9.002;2023-04-09T03:52:00;4.50;96.90
212;DHT22;16228;48.800;9.002;2023-04-09T03:54:28;4.40;96.90
212;DHT22;16228;48.800;9.002;2023-04-09T03:56:55;4.40;96.90
212;DHT22;16228;48.800;9.002;2023-04-09T03:59:24;4.40;96.90
212;DHT22;16228;48.800;9.002;2023-04-09T04:01:51;4.40;96.90
212;DHT22;16228;48.800;9.002;2023-04-09T04:04:18;4.40;96.90
212;DHT22;16228;48.800;9.002;2023-04-09T04:06:44;4.40;96.90
212;DHT22;16228;48.800;9.002;2023-04-09T04:09:11;4.40;96.90
212;DHT22;16228;48.800;9.002;2023-04-09T04:11:38;4.40;96.90
212;DHT22;16228;48.800;9.002;2023-04-09T04:14:05;4.40;96.90
212;DHT22;16228;48.800;9.002;2023-04-09T04:16:34;4.40;96.90
212;DHT22;16228;48.800;9.002;2023-04-09T04:19:01;4.40;96.90
212;DHT22;16228;48.800;9.002;2023-04-09T04:21:27;4.40;96.90
212;DHT22;16228;48.800;9.002;2023-04-09T04:23:54;4.50;96.90
212;DHT22;16228;48.800;9.002;2023-04-09T04:26:21;4.50;96.90
212;DHT22;16228;48.800;9.002;2023-04-09T04:28:48;4.50;96.90
212;DHT22;16228;48.800;9.002;2023-04-09T04:31:15;4.60;96.90
212;DHT22;16228;48.800;9.002;2023-04-09T04:33:44;4.60;96.90
212;DHT22;16228;48.800;9.002;2023-04-09T04:36:12;4.70;96.90
212;DHT22;16228;48.800;9.002;2023-04-09T04:38:40;4.60;96.90
212;DHT22;16228;48.800;9.002;2023-04-09T04:41:07;4.60;96.90
212;DHT22;16228;48.800;9.002;2023-04-09T04:43:34;4.60;96.90
212;DHT22;16228;48.800;9.002;2023-04-09T04:46:01;4.60;96.90
212;DHT22;16228;48.800;9.002;2023-04-09T04:48:28;4.60;96.90
212;DHT22;16228;48.800;9.002;2023-04-09T04:50:57;4.70;96.90
212;DHT22;16228;48.800;9.002;2023-04-09T04:53:25;4.70;96.90
212;DHT22;16228;48.800;9.002;2023-04-09T04:55:52;4.60;96.90
212;DHT22;16228;48.800;9.002;2023-04-09T04:58:19;4.50;96.90
212;DHT22;16228;48.800;9.002;2023-04-09T05:00:46;4.50;96.90
212;DHT22;16228;48.800;9.002;2023-04-09T05:03:13;4.50;96.90
212;DHT22;16228;48.800;9.002;2023-04-09T05:05:40;4.50;96.90
212;DHT22;16228;48.800;9.002;2023-04-09T05:08:09;4.50;96.90
212;DHT22;16228;48.800;9.002;2023-04-09T05:10:36;4.40;96.90
212;DHT22;16228;48.800;9.002;2023-04-09T05:13:06;4.40;96.90
212;DHT22;16228;48.800;9.002;2023-04-09T05:15:33;4.50;96.90
212;DHT22;16228;48.800;9.002;2023-04-09T05:18:02;4.50;96.90
212;DHT22;16228;48.800;9.002;2023-04-09T05:20:29;4.50;96.90
212;DHT22;16228;48.800;9.002;2023-04-09T05:22:56;4.50;96.90
212;DHT22;16228;48.800;9.002;2023-04-09T05:25:25;4.50;96.90
212;DHT22;16228;48.800;9.002;2023-04-09T05:27:52;4.60;96.90
212;DHT22;16228;48.800;9.002;2023-04-09T05:30:19;4.60;96.90
212;DHT22;16228;48.800;9.002;2023-04-09T05:32:46;4.70;96.90
212;DHT22;16228;48.800;9.002;2023-04-09T05:35:13;4.70;96.90
212;DHT22;16228;48.800;9.002;2023-04-09T05:37:40;4.80;96.90
212;DHT22;16228;48.800;9.002;2023-04-09T05:40:08;4.80;96.90
212;DHT22;16228;48.800;9.002;2023-04-09T05:42:36;4.90;96.90
212;DHT22;16228;48.800;9.002;2023-04-09T05:45:04;5.00;96.90
212;DHT22;16228;48.800;9.002;2023-04-09T05:47:31;5.10;96.90
212;DHT22;16228;48.800;9.002;2023-04-09T05:49:58;5.20;96.90
212;DHT22;16228;48.800;9.002;2023-04-09T05:52:25;5.30;96.90
212;DHT22;16228;48.800;9.002;2023-04-09T05:54:53;5.30;96.90
212;DHT22;16228;48.800;9.002;2023-04-09T05:57:19;5.30;96.90
212;DHT22;16228;48.800;9.002;2023-04-09T05:59:48;5.40;96.90
212;DHT22;16228;48.800;9.002;2023-04-09T06:02:15;5.50;96.90
212;DHT22;16228;48.800;9.002;2023-04-09T06:04:42;5.50;96.90
212;DHT22;16228;48.800;9.002;2023-04-09T06:07:09;5.50;96.90
212;DHT22;16228;48.800;9.002;2023-04-09T06:09:36;5.60;96.90
212;DHT22;16228;48.800;9.002;2023-04-09T06:12:03;5.80;96.90
212;DHT22;16228;48.800;9.002;2023-04-09T06:14:30;6.00;96.90
212;DHT22;16228;48.800;9.002;2023-04-09T06:16:59;6.20;96.90
212;DHT22;16228;48.800;9.002;2023-04-09T06:19:26;6.30;96.90
212;DHT22;16228;48.800;9.002;2023-04-09T06:21:53;6.40;96.90
212;DHT22;16228;48.800;9.002;2023-04-09T06:24:20;6.60;96.90
212;DHT22;16228;48.800;9.002;2023-04-09T06:26:47;6.80;96.90
212;DHT22;16228;48.800;9.002;2023-04-09T06:29:14;7.00;96.90
212;DHT22;16228;48.800;9.002;2023-04-09T06:31:41;7.40;96.90
212;DHT22;16228;48.800;9.002;2023-04-09T06:34:09;7.90;96.90
212;DHT22;16228;48.800;9.002;2023-04-09T06:36:36;8.50;96.90
212;DHT22;16228;48.800;9.002;2023-04-09T06:39:05;9.30;96.90
212;DHT22;16228;48.800;9.002;2023-04-09T06:41:32;10.10;96.90
212;DHT22;16228;48.800;9.002;2023-04-09T06:43:59;10.80;96.90
212;DHT22;16228;48.800;9.002;2023-04-09T06:46:26;11.10;96.90
212;DHT22;16228;48.800;9.002;2023-04-09T06:48:53;11.30;96.90
212;DHT22;16228;48.800;9.002;2023-04-09T06:51:22;11.50;96.90
212;DHT22;16228;48.800;9.002;2023-04-09T06:53:49;11.70;96.90
212;DHT22;16228;48.800;9.002;2023-04-09T06:56:15;12.20;96.90
212;DHT22;16228;48.800;9.002;2023-04-09T06:58:42;12.70;96.90
212;DHT22;16228;48.800;9.002;2023-04-09T07:01:10;12.90;96.90
212;DHT22;16228;48.800;9.002;2023-04-09T07:03:37;13.00;96.90
212;DHT22;16228;48.800;9.002;2023-04-09T07:06:05;13.40;96.90
212;DHT22;16228;48.800;9.002;2023-04-09T07:08:33;13.80;96.90
212;DHT22;16228;48.800;9.002;2023-04-09T07:11:00;14.30;96.90
212;DHT22;16228;48.800;9.002;2023-04-09T07:13:28;14.40;96.90
212;DHT22;16228;48.800;9.002;2023-04-09T07:15:56;14.50;96.90
212;DHT22;16228;48.800;9.002;2023-04-09T07:18:23;14.70;96.90
212;DHT22;16228;48.800;9.002;2023-04-09T07:20:51;15.00;96.90
212;DHT22;16228;48.800;9.002;2023-04-09T07:23:18;15.50;96.80
212;DHT22;16228;48.800;9.002;2023-04-09T07:25:47;16.20;95.10
212;DHT22;16228;48.800;9.002;2023-04-09T07:28:14;16.90;93.60
212;DHT22;16228;48.800;9.002;2023-04-09T07:30:41;17.50;91.20
212;DHT22;16228;48.800;9.002;2023-04-09T07:33:08;18.30;89.60
212;DHT22;16228;48.800;9.002;2023-04-09T07:35:35;19.00;87.70
212;DHT22;16228;48.800;9.002;2023-04-09T07:38:02;19.60;84.60
212;DHT22;16228;48.800;9.002;2023-04-09T07:40:29;20.00;82.20
212;DHT22;16228;48.800;9.002;2023-04-09T07:42:57;20.20;81.30
212;DHT22;16228;48.800;9.002;2023-04-09T07:45:24;20.50;81.80
212;DHT22;16228;48.800;9.002;2023-04-09T07:47:51;20.50;80.40
212;DHT22;16228;48.800;9.002;2023-04-09T07:50:18;20.60;80.00
212;DHT22;16228;48.800;9.002;2023-04-09T07:52:45;20.40;79.60
212;DHT22;16228;48.800;9.002;2023-04-09T07:55:12;20.00;80.60
212;DHT22;16228;48.800;9.002;2023-04-09T07:57:39;20.00;80.80
212;DHT22;16228;48.800;9.002;2023-04-09T08:00:10;20.10;79.00
212;DHT22;16228;48.800;9.002;2023-04-09T08:02:37;19.90;80.60
212;DHT22;16228;48.800;9.002;2023-04-09T08:05:05;20.40;78.90
212;DHT22;16228;48.800;9.002;2023-04-09T08:07:32;21.20;77.60
212;DHT22;16228;48.800;9.002;2023-04-09T08:09:59;21.50;77.60
212;DHT22;16228;48.800;9.002;2023-04-09T08:12:26;21.60;74.50
212;DHT22;16228;48.800;9.002;2023-04-09T08:14:53;21.40;74.20
212;DHT22;16228;48.800;9.002;2023-04-09T08:17:22;20.00;76.00
212;DHT22;16228;48.800;9.002;2023-04-09T08:19:49;18.10;80.40
212;DHT22;16228;48.800;9.002;2023-04-09T08:22:16;16.60;84.70
212;DHT22;16228;48.800;9.002;2023-04-09T08:24:43;15.60;86.80
212;DHT22;16228;48.800;9.002;2023-04-09T08:27:10;14.90;89.10
212;DHT22;16228;48.800;9.002;2023-04-09T08:29:37;14.20;89.80
212;DHT22;16228;48.800;9.002;2023-04-09T08:32:05;13.80;90.00
212;DHT22;16228;48.800;9.002;2023-04-09T08:34:34;13.80;93.40
212;DHT22;16228;48.800;9.002;2023-04-09T08:37:01;14.80;92.00
212;DHT22;16228;48.800;9.002;2023-04-09T08:39:27;16.30;86.30
212;DHT22;16228;48.800;9.002;2023-04-09T08:41:57;18.00;85.00
212;DHT22;16228;48.800;9.002;2023-04-09T08:44:25;19.30;78.50
212;DHT22;16228;48.800;9.002;2023-04-09T08:46:52;19.60;77.30
212;DHT22;16228;48.800;9.002;2023-04-09T08:49:19;18.80;75.60
212;DHT22;16228;48.800;9.002;2023-04-09T08:51:48;18.00;74.20
212;DHT22;16228;48.800;9.002;2023-04-09T08:54:15;17.30;77.40
212;DHT22;16228;48.800;9.002;2023-04-09T08:56:44;16.40;80.00
212;DHT22;16228;48.800;9.002;2023-04-09T08:59:14;16.10;82.20
212;DHT22;16228;48.800;9.002;2023-04-09T09:01:42;16.80;82.00
212;DHT22;16228;48.800;9.002;2023-04-09T09:04:09;17.20;80.00
212;DHT22;16228;48.800;9.002;2023-04-09T09:06:37;16.80;78.50
212;DHT22;16228;48.800;9.002;2023-04-09T09:09:07;15.90;80.30
212;DHT22;16228;48.800;9.002;2023-04-09T09:11:35;15.20;81.10
212;DHT22;16228;48.800;9.002;2023-04-09T09:14:03;14.60;80.00
212;DHT22;16228;48.800;9.002;2023-04-09T09:16:31;14.20;82.50
212;DHT22;16228;48.800;9.002;2023-04-09T09:19:00;14.00;85.40
212;DHT22;16228;48.800;9.002;2023-04-09T09:21:27;13.80;86.50
212;DHT22;16228;48.800;9.002;2023-04-09T09:23:55;13.60;87.30
212;DHT22;16228;48.800;9.002;2023-04-09T09:26:25;13.50;88.00
212;DHT22;16228;48.800;9.002;2023-04-09T09:28:53;13.30;88.00
212;DHT22;16228;48.800;9.002;2023-04-09T09:31:21;13.30;91.50
212;DHT22;16228;48.800;9.002;2023-04-09T09:33:48;13.40;89.70
212;DHT22;16228;48.800;9.002;2023-04-09T09:36:29;14.40;86.80
212;DHT22;16228;48.800;9.002;2023-04-09T09:38:58;14.60;86.30
212;DHT22;16228;48.800;9.002;2023-04-09T09:41:29;14.70;85.60
212;DHT22;16228;48.800;9.002;2023-04-09T09:43:56;14.50;84.50
212;DHT22;16228;48.800;9.002;2023-04-09T09:46:24;14.50;84.30
212;DHT22;16228;48.800;9.002;2023-04-09T09:48:52;14.60;86.10
212;DHT22;16228;48.800;9.002;2023-04-09T09:51:24;14.50;84.70
212;DHT22;16228;48.800;9.002;2023-04-09T09:53:54;14.20;82.00
212;DHT22;16228;48.800;9.002;2023-04-09T09:56:23;13.80;82.60
212;DHT22;16228;48.800;9.002;2023-04-09T09:59:01;13.60;84.40
212;DHT22;16228;48.800;9.002;2023-04-09T10:01:32;13.40;86.10
212;DHT22;16228;48.800;9.002;2023-04-09T10:03:59;13.30;85.20
212;DHT22;16228;48.800;9.002;2023-04-09T10:06:27;13.20;84.90
212;DHT22;16228;48.800;9.002;2023-04-09T10:08:57;13.30;82.50
212;DHT22;16228;48.800;9.002;2023-04-09T10:11:24;13.50;83.50
212;DHT22;16228;48.800;9.002;2023-04-09T10:13:55;13.70;85.20
212;DHT22;16228;48.800;9.002;2023-04-09T10:16:24;13.60;83.90
212;DHT22;16228;48.800;9.002;2023-04-09T10:18:51;13.40;85.50
212;DHT22;16228;48.800;9.002;2023-04-09T10:21:27;13.50;86.40
212;DHT22;16228;48.800;9.002;2023-04-09T10:23:57;13.80;86.80
212;DHT22;16228;48.800;9.002;2023-04-09T10:26:25;14.30;87.10
212;DHT22;16228;48.800;9.002;2023-04-09T10:29:05;15.20;83.20
212;DHT22;16228;48.800;9.002;2023-04-09T10:31:52;15.80;81.80
212;DHT22;16228;48.800;9.002;2023-04-09T10:34:21;16.70;73.90
212;DHT22;16228;48.800;9.002;2023-04-09T10:36:54;18.10;71.70
212;DHT22;16228;48.800;9.002;2023-04-09T10:39:25;18.40;67.40
212;DHT22;16228;48.800;9.002;2023-04-09T10:41:53;18.60;68.60
212;DHT22;16228;48.800;9.002;2023-04-09T10:44:22;17.80;66.40
212;DHT22;16228;48.800;9.002;2023-04-09T10:46:53;17.00;69.10
212;DHT22;16228;48.800;9.002;2023-04-09T10:49:21;16.30;70.40
212;DHT22;16228;48.800;9.002;2023-04-09T10:51:51;15.70;72.20
212;DHT22;16228;48.800;9.002;2023-04-09T10:54:40;15.30;72.30
212;DHT22;16228;48.800;9.002;2023-04-09T10:57:16;16.00;73.00
212;DHT22;16228;48.800;9.002;2023-04-09T10:59:44;16.70;69.40
212;DHT22;16228;48.800;9.002;2023-04-09T11:02:44;16.90;70.70
212;DHT22;16228;48.800;9.002;2023-04-09T11:05:31;17.30;71.10
212;DHT22;16228;48.800;9.002;2023-04-09T11:08:06;17.90;66.60
212;DHT22;16228;48.800;9.002;2023-04-09T11:10:36;18.60;64.90
212;DHT22;16228;48.800;9.002;2023-04-09T11:13:04;19.20;62.30
212;DHT22;16228;48.800;9.002;2023-04-09T11:15:31;18.40;64.30
212;DHT22;16228;48.800;9.002;2023-04-09T11:18:02;17.50;66.30
212;DHT22;16228;48.800;9.002;2023-04-09T11:20:33;16.80;69.60
212;DHT22;16228;48.800;9.002;2023-04-09T11:23:00;15.90;69.50
212;DHT22;16228;48.800;9.002;2023-04-09T11:25:29;15.30;72.40
212;DHT22;16228;48.800;9.002;2023-04-09T11:27:56;15.50;74.00
212;DHT22;16228;48.800;9.002;2023-04-09T11:30:23;15.70;73.80
212;DHT22;16228;48.800;9.002;2023-04-09T11:32:51;16.30;74.40
212;DHT22;16228;48.800;9.002;2023-04-09T11:35:20;17.00;72.50
212;DHT22;16228;48.800;9.002;2023-04-09T11:37:49;17.50;69.00
212;DHT22;16228;48.800;9.002;2023-04-09T11:40:18;18.30;67.80
212;DHT22;16228;48.800;9.002;2023-04-09T11:42:47;18.40;67.20
212;DHT22;16228;48.800;9.002;2023-04-09T11:45:15;17.70;67.30
212;DHT22;16228;48.800;9.002;2023-04-09T11:47:43;17.20;67.30
212;DHT22;16228;48.800;9.002;2023-04-09T11:50:12;16.30;69.30
212;DHT22;16228;48.800;9.002;2023-04-09T11:52:40;16.50;70.10
212;DHT22;16228;48.800;9.002;2023-04-09T11:55:08;16.90;70.70
212;DHT22;16228;48.800;9.002;2023-04-09T11:57:40;18.70;69.50
212;DHT22;16228;48.800;9.002;2023-04-09T12:00:09;20.60;68.10
212;DHT22;16228;48.800;9.002;2023-04-09T12:02:38;21.70;64.40
212;DHT22;16228;48.800;9.002;2023-04-09T12:05:08;22.20;61.50
212;DHT22;16228;48.800;9.002;2023-04-09T12:07:36;22.90;62.10
212;DHT22;16228;48.800;9.002;2023-04-09T12:10:06;23.40;60.80
212;DHT22;16228;48.800;9.002;2023-04-09T12:12:41;24.30;58.00
212;DHT22;16228;48.800;9.002;2023-04-09T12:15:29;24.80;57.90
212;DHT22;16228;48.800;9.002;2023-04-09T12:17:57;24.70;56.10
212;DHT22;16228;48.800;9.002;2023-04-09T12:20:29;22.40;58.70
212;DHT22;16228;48.800;9.002;2023-04-09T12:22:56;21.30;61.90
212;DHT22;16228;48.800;9.002;2023-04-09T12:25:26;20.40;64.80
212;DHT22;16228;48.800;9.002;2023-04-09T12:27:54;20.00;62.50
212;DHT22;16228;48.800;9.002;2023-04-09T12:30:21;20.50;63.40
212;DHT22;16228;48.800;9.002;2023-04-09T12:32:48;21.20;62.30
212;DHT22;16228;48.800;9.002;2023-04-09T12:35:15;21.90;60.40
212;DHT22;16228;48.800;9.002;2023-04-09T12:37:43;23.10;58.80
212;DHT22;16228;48.800;9.002;2023-04-09T12:40:11;23.30;57.20
212;DHT22;16228;48.800;9.002;2023-04-09T12:42:40;22.90;58.20
212;DHT22;16228;48.800;9.002;2023-04-09T12:45:08;22.80;60.80
212;DHT22;16228;48.800;9.002;2023-04-09T12:47:36;22.70;58.20
212;DHT22;16228;48.800;9.002;2023-04-09T12:50:05;22.50;58.70
212;DHT22;16228;48.800;9.002;2023-04-09T12:52:32;22.80;58.90
212;DHT22;16228;48.800;9.002;2023-04-09T12:55:00;23.50;59.30
212;DHT22;16228;48.800;9.002;2023-04-09T12:57:28;22.90;58.30
212;DHT22;16228;48.800;9.002;2023-04-09T12:59:56;22.50;59.90
212;DHT22;16228;48.800;9.002;2023-04-09T13:02:23;22.20;59.30
212;DHT22;16228;48.800;9.002;2023-04-09T13:04:51;22.00;61.20
212;DHT22;16228;48.800;9.002;2023-04-09T13:07:19;21.30;60.60
212;DHT22;16228;48.800;9.002;2023-04-09T13:09:46;20.50;62.30
212;DHT22;16228;48.800;9.002;2023-04-09T13:12:15;20.40;61.10
212;DHT22;16228;48.800;9.002;2023-04-09T13:14:43;20.40;61.40
212;DHT22;16228;48.800;9.002;2023-04-09T13:17:12;20.60;61.20
212;DHT22;16228;48.800;9.002;2023-04-09T13:19:39;20.80;61.50
212;DHT22;16228;48.800;9.002;2023-04-09T13:22:06;20.80;60.60
212;DHT22;16228;48.800;9.002;2023-04-09T13:24:33;20.60;60.20
212;DHT22;16228;48.800;9.002;2023-04-09T13:27:01;19.80;61.90
212;DHT22;16228;48.800;9.002;2023-04-09T13:29:28;19.80;63.20
212;DHT22;16228;48.800;9.002;2023-04-09T13:31:55;19.00;63.30
212;DHT22;16228;48.800;9.002;2023-04-09T13:34:24;18.20;65.00
212;DHT22;16228;48.800;9.002;2023-04-09T13:36:51;17.60;66.50
212;DHT22;16228;48.800;9.002;2023-04-09T13:39:19;17.00;68.40
212;DHT22;16228;48.800;9.002;2023-04-09T13:41:46;16.90;71.30
212;DHT22;16228;48.800;9.002;2023-04-09T13:44:13;16.90;68.30
212;DHT22;16228;48.800;9.002;2023-04-09T13:46:40;16.80;68.60
212;DHT22;16228;48.800;9.002;2023-04-09T13:49:07;16.50;69.50
212;DHT22;16228;48.800;9.002;2023-04-09T13:51:35;16.10;70.20
212;DHT22;16228;48.800;9.002;2023-04-09T13:54:02;16.10;70.40
212;DHT22;16228;48.800;9.002;2023-04-09T13:56:29;15.90;71.70
212;DHT22;16228;48.800;9.002;2023-04-09T13:58:56;17.00;72.90
212;DHT22;16228;48.800;9.002;2023-04-09T14:01:23;17.80;67.30
212;DHT22;16228;48.800;9.002;2023-04-09T14:03:52;17.70;67.50
212;DHT22;16228;48.800;9.002;2023-04-09T14:06:18;17.90;67.60
212;DHT22;16228;48.800;9.002;2023-04-09T14:08:47;17.70;68.70
212;DHT22;16228;48.800;9.002;2023-04-09T14:11:14;17.60;68.30
212;DHT22;16228;48.800;9.002;2023-04-09T14:13:41;17.30;69.10
212;DHT22;16228;48.800;9.002;2023-04-09T14:16:08;17.20;68.60
212;DHT22;16228;48.800;9.002;2023-04-09T14:18:35;16.50;68.90
212;DHT22;16228;48.800;9.002;2023-04-09T14:21:04;16.10;70.30
212;DHT22;16228;48.800;9.002;2023-04-09T14:23:31;15.70;70.00
212;DHT22;16228;48.800;9.002;2023-04-09T14:26:00;15.70;70.00
212;DHT22;16228;48.800;9.002;2023-04-09T14:28:28;15.40;70.70
212;DHT22;16228;48.800;9.002;2023-04-09T14:30:54;15.20;71.20
212;DHT22;16228;48.800;9.002;2023-04-09T14:33:21;14.90;71.50
212;DHT22;16228;48.800;9.002;2023-04-09T14:35:48;14.70;73.20
212;DHT22;16228;48.800;9.002;2023-04-09T14:38:15;15.10;73.50
212;DHT22;16228;48.800;9.002;2023-04-09T14:40:43;15.50;71.50
212;DHT22;16228;48.800;9.002;2023-04-09T14:43:12;16.00;71.30
212;DHT22;16228;48.800;9.002;2023-04-09T14:45:39;16.60;69.40
212;DHT22;16228;48.800;9.002;2023-04-09T14:48:06;17.20;68.50
212;DHT22;16228;48.800;9.002;2023-04-09T14:50:33;17.70;66.70
212;DHT22;16228;48.800;9.002;2023-04-09T14:53:01;17.60;66.50
212;DHT22;16228;48.800;9.002;2023-04-09T14:55:28;18.20;69.20
212;DHT22;16228;48.800;9.002;2023-04-09T14:57:55;18.40;66.70
212;DHT22;16228;48.800;9.002;2023-04-09T15:00:23;18.60;65.70
212;DHT22;16228;48.800;9.002;2023-04-09T15:02:51;18.20;64.20
212;DHT22;16228;48.800;9.002;2023-04-09T15:05:18;17.90;65.80
212;DHT22;16228;48.800;9.002;2023-04-09T15:07:45;17.70;66.40
212;DHT22;16228;48.800;9.002;2023-04-09T15:10:12;17.00;66.30
212;DHT22;16228;48.800;9.002;2023-04-09T15:12:40;16.20;69.40
212;DHT22;16228;48.800;9.002;2023-04-09T15:15:08;15.70;69.50
212;DHT22;16228;48.800;9.002;2023-04-09T15:17:36;15.70;71.70
212;DHT22;16228;48.800;9.002;2023-04-09T15:20:04;15.70;69.90
212;DHT22;16228;48.800;9.002;2023-04-09T15:22:31;15.80;72.10
212;DHT22;16228;48.800;9.002;2023-04-09T15:24:58;15.60;69.80
212;DHT22;16228;48.800;9.002;2023-04-09T15:27:25;15.40;71.20
212;DHT22;16228;48.800;9.002;2023-04-09T15:29:52;15.30;71.00
212;DHT22;16228;48.800;9.002;2023-04-09T15:32:19;15.10;72.10
212;DHT22;16228;48.800;9.002;2023-04-09T15:34:48;14.80;71.70
212;DHT22;16228;48.800;9.002;2023-04-09T15:37:15;14.70;72.70
212;DHT22;16228;48.800;9.002;2023-04-09T15:39:42;14.60;73.70
212;DHT22;16228;48.800;9.002;2023-04-09T15:42:09;14.50;73.00
212;DHT22;16228;48.800;9.002;2023-04-09T15:44:36;14.40;74.10
212;DHT22;16228;48.800;9.002;2023-04-09T15:47:03;14.40;73.90
212;DHT22;16228;48.800;9.002;2023-04-09T15:49:30;14.30;73.80
212;DHT22;16228;48.800;9.002;2023-04-09T15:51:59;14.30;74.00
212;DHT22;16228;48.800;9.002;2023-04-09T15:54:26;14.30;74.10
212;DHT22;16228;48.800;9.002;2023-04-09T15:56:52;14.10;72.90
212;DHT22;16228;48.800;9.002;2023-04-09T15:59:19;14.00;73.20
212;DHT22;16228;48.800;9.002;2023-04-09T16:01:46;14.00;73.60
212;DHT22;16228;48.800;9.002;2023-04-09T16:04:13;14.10;73.50
212;DHT22;16228;48.800;9.002;2023-04-09T16:06:40;14.00;73.50
212;DHT22;16228;48.800;9.002;2023-04-09T16:09:09;13.90;74.80
212;DHT22;16228;48.800;9.002;2023-04-09T16:11:36;13.90;74.20
212;DHT22;16228;48.800;9.002;2023-04-09T16:14:02;14.00;74.70